Time;durP1;ratioP1;P1;durP2;ratioP2;P2;SDS_P1;SDS_P2;PMS_P1;PMS_P2;Temp;Humidity;BMP_temperature;BMP_pressure;BME280_temperature;BME280_humidity;BME280_pressure;Samples;Min_cycle;Max_cycle;Signal;HPM_P1;HPM_P2
2023/12/26 00:00:47;;;;;;;68.53;51.17;;;9.20;99.90;;;;;;5052101;28;20107;-76
2023/12/26 00:03:13;;;;;;;73.80;50.38;;;9.20;99.90;;;;;;5049749;28;20029;-76
2023/12/26 00:05:40;;;;;;;74.60;51.28;;;9.20;99.90;;;;;;5052141;28;20029;-76
2023/12/26 00:08:07;;;;;;;68.20;51.20;;;9.10;99.90;;;;;;5051418;28;20082;-76
2023/12/26 00:10:33;;;;;;;66.70;50.22;;;9.10;99.90;;;;;;5048209;28;20021;-76
2023/12/26 00:13:00;;;;;;;66.47;50.90;;;9.10;99.90;;;;;;5051325;28;20040;-76
2023/12/26 00:15:27;;;;;;;68.00;50.25;;;9.20;99.90;;;;;;5048482;28;20282;-76
2023/12/26 00:17:52;;;;;;;69.50;50.00;;;9.20;99.90;;;;;;5051246;28;20025;-76
2023/12/26 00:20:18;;;;;;;84.03;52.67;;;9.10;99.90;;;;;;5051753;28;20037;-76
2023/12/26 00:22:44;;;;;;;75.25;54.25;;;9.10;99.90;;;;;;5051795;28;20036;-76
2023/12/26 00:25:11;;;;;;;78.60;54.38;;;9.10;99.90;;;;;;5052210;28;20032;-76
2023/12/26 00:27:38;;;;;;;77.10;53.00;;;9.00;99.90;;;;;;5048411;28;20074;-76
2023/12/26 00:30:05;;;;;;;73.15;51.13;;;9.10;99.90;;;;;;5052098;28;20024;-76
2023/12/26 00:32:31;;;;;;;80.85;53.60;;;9.10;99.90;;;;;;5038882;28;20095;-76
2023/12/26 00:34:58;;;;;;;78.03;53.60;;;9.10;99.90;;;;;;5051887;28;20025;-76
2023/12/26 00:37:24;;;;;;;80.35;52.95;;;9.10;99.90;;;;;;5048849;28;20060;-76
2023/12/26 00:39:50;;;;;;;75.72;52.38;;;9.10;99.90;;;;;;5048521;28;20017;-76
2023/12/26 00:42:15;;;;;;;76.50;50.90;;;9.10;99.90;;;;;;5050846;28;20032;-76
2023/12/26 00:44:41;;;;;;;76.88;49.97;;;9.10;99.90;;;;;;5051716;28;20028;-76
2023/12/26 00:47:07;;;;;;;73.78;49.50;;;9.10;99.90;;;;;;5051415;28;20040;-76
2023/12/26 00:49:32;;;;;;;67.38;50.22;;;9.10;99.90;;;;;;5051288;28;20433;-76
2023/12/26 00:51:58;;;;;;;72.38;51.80;;;9.20;99.90;;;;;;5043799;28;20036;-76
2023/12/26 00:54:24;;;;;;;70.93;48.38;;;9.20;99.90;;;;;;5059616;28;20512;-76
2023/12/26 00:56:50;;;;;;;66.50;46.70;;;9.10;99.90;;;;;;5044070;28;20590;-76
2023/12/26 00:59:15;;;;;;;67.95;49.05;;;9.10;99.90;;;;;;5059630;28;20107;-76
2023/12/26 01:01:41;;;;;;;72.78;51.50;;;9.10;99.90;;;;;;5050812;28;20033;-76
2023/12/26 01:04:07;;;;;;;70.53;49.90;;;9.10;99.90;;;;;;5048560;28;20025;-76
2023/12/26 01:06:33;;;;;;;72.35;49.28;;;9.10;99.90;;;;;;5052074;28;20066;-76
2023/12/26 01:08:58;;;;;;;66.47;49.53;;;9.10;99.90;;;;;;5051889;28;20447;-76
2023/12/26 01:11:24;;;;;;;76.82;51.05;;;9.10;99.90;;;;;;5047113;28;20079;-76
2023/12/26 01:13:50;;;;;;;72.32;49.35;;;9.10;99.90;;;;;;5051317;28;20529;-76
2023/12/26 01:16:15;;;;;;;79.20;49.78;;;9.10;99.90;;;;;;5051236;28;20021;-76
2023/12/26 01:18:41;;;;;;;74.97;49.35;;;9.10;99.90;;;;;;5050308;28;20018;-76
2023/12/26 01:21:08;;;;;;;67.90;49.03;;;9.10;99.90;;;;;;5051401;28;20146;-76
2023/12/26 01:23:34;;;;;;;69.35;48.35;;;9.10;99.90;;;;;;5050164;28;20025;-76
2023/12/26 01:26:00;;;;;;;67.85;47.72;;;9.10;99.90;;;;;;5051867;28;20029;-76
2023/12/26 01:28:26;;;;;;;76.45;49.58;;;9.10;99.90;;;;;;5051858;28;20036;-76
2023/12/26 01:30:52;;;;;;;77.60;48.55;;;9.10;99.90;;;;;;5051861;28;20086;-76
2023/12/26 01:33:17;;;;;;;65.63;46.25;;;9.10;99.90;;;;;;5051909;28;20052;-76
2023/12/26 01:35:43;;;;;;;67.78;46.45;;;9.10;99.90;;;;;;5051958;28;20391;-76
2023/12/26 01:38:09;;;;;;;69.38;47.00;;;9.10;99.90;;;;;;5050303;28;20036;-76
2023/12/26 01:40:34;;;;;;;69.88;48.20;;;9.10;99.90;;;;;;5048527;28;20021;-76
2023/12/26 01:43:00;;;;;;;66.50;46.47;;;9.10;99.90;;;;;;5044419;28;20036;-76
2023/12/26 01:45:26;;;;;;;62.33;44.67;;;9.10;99.90;;;;;;5050966;28;20036;-76
2023/12/26 01:47:55;;;;;;;72.00;47.40;;;9.10;99.90;;;;;;5051073;28;20063;-76
2023/12/26 01:50:23;;;;;;;67.32;47.67;;;9.10;99.90;;;;;;5051160;28;20055;-76
2023/12/26 01:52:49;;;;;;;66.50;45.88;;;9.20;99.90;;;;;;5047325;28;20029;-76
2023/12/26 01:55:17;;;;;;;65.85;45.42;;;9.20;99.90;;;;;;5051022;28;20041;-76
2023/12/26 01:57:43;;;;;;;59.22;44.13;;;9.10;99.90;;;;;;5050815;28;20021;-76
2023/12/26 02:00:09;;;;;;;69.60;44.80;;;9.10;99.90;;;;;;5051144;28;20053;-76
2023/12/26 02:02:36;;;;;;;69.28;47.17;;;9.20;99.90;;;;;;5054174;28;20025;-76
2023/12/26 02:05:02;;;;;;;61.65;44.55;;;9.20;99.90;;;;;;5053329;28;20506;-76
2023/12/26 02:07:28;;;;;;;71.00;44.30;;;9.10;99.90;;;;;;5051250;28;20433;-76
2023/12/26 02:09:54;;;;;;;66.10;44.80;;;9.10;99.90;;;;;;5052408;28;20490;-76
2023/12/26 02:12:20;;;;;;;64.93;45.25;;;9.10;99.90;;;;;;5054233;28;20021;-76
2023/12/26 02:14:47;;;;;;;54.35;41.15;;;9.10;99.90;;;;;;5054315;28;20017;-76
2023/12/26 02:17:19;;;;;;;65.88;43.53;;;9.20;99.90;;;;;;5054487;28;20028;-76
2023/12/26 02:19:46;;;;;;;63.75;44.20;;;9.10;99.90;;;;;;5061181;28;20045;-76
2023/12/26 02:22:12;;;;;;;68.72;43.92;;;9.10;99.90;;;;;;5054315;28;20490;-76
2023/12/26 02:24:42;;;;;;;63.75;45.17;;;9.10;99.90;;;;;;5054326;28;20040;-75
2023/12/26 02:27:16;;;;;;;65.20;45.80;;;9.00;99.90;;;;;;5045139;28;20464;-75
2023/12/26 02:29:49;;;;;;;64.70;44.80;;;9.00;99.90;;;;;;5054074;28;20089;-76
2023/12/26 02:32:20;;;;;;;65.20;43.63;;;9.00;99.90;;;;;;5054051;28;20021;-76
2023/12/26 02:34:54;;;;;;;66.57;45.78;;;9.00;99.90;;;;;;5050871;28;20471;-76
2023/12/26 02:37:21;;;;;;;70.80;45.60;;;9.00;99.90;;;;;;5054766;28;20025;-76
2023/12/26 02:39:49;;;;;;;65.40;45.67;;;9.00;99.90;;;;;;5052528;28;20423;-76
2023/12/26 02:42:20;;;;;;;60.75;43.72;;;9.00;99.90;;;;;;5051829;28;20051;-76
2023/12/26 02:44:46;;;;;;;60.95;44.78;;;9.00;99.90;;;;;;5061827;28;20497;-76
2023/12/26 02:47:13;;;;;;;64.32;44.60;;;9.00;99.90;;;;;;5052096;28;20045;-76
2023/12/26 02:49:39;;;;;;;64.25;44.53;;;9.00;99.90;;;;;;5053593;28;20502;-76
2023/12/26 02:52:05;;;;;;;63.22;42.03;;;9.00;99.90;;;;;;5052825;28;20029;-76
2023/12/26 02:54:30;;;;;;;70.95;47.30;;;9.00;99.90;;;;;;5053582;28;20064;-76
2023/12/26 02:56:56;;;;;;;60.88;42.33;;;9.00;99.90;;;;;;5053384;28;20021;-76
2023/12/26 02:59:22;;;;;;;62.70;43.97;;;9.00;99.90;;;;;;5053399;28;20032;-76
2023/12/26 03:01:51;;;;;;;61.42;42.92;;;9.00;99.90;;;;;;5053415;28;20099;-76
2023/12/26 03:04:17;;;;;;;60.58;42.70;;;9.00;99.90;;;;;;5053551;28;20395;-76
2023/12/26 03:06:42;;;;;;;62.70;42.35;;;9.00;99.90;;;;;;5057040;28;20471;-76
2023/12/26 03:09:08;;;;;;;62.45;43.92;;;9.00;99.90;;;;;;5053279;28;20036;-76
2023/12/26 03:11:34;;;;;;;66.93;43.83;;;9.00;99.90;;;;;;5053217;28;20033;-76
2023/12/26 03:14:00;;;;;;;64.03;43.30;;;9.00;99.90;;;;;;5053246;28;20079;-76
2023/12/26 03:16:26;;;;;;;64.88;43.63;;;9.00;99.90;;;;;;5053251;28;20029;-76
2023/12/26 03:18:52;;;;;;;63.55;42.38;;;9.00;99.90;;;;;;5053037;28;20029;-76
2023/12/26 03:21:18;;;;;;;65.85;42.17;;;9.00;99.90;;;;;;5053100;28;20463;-76
2023/12/26 03:23:43;;;;;;;55.10;42.13;;;9.00;99.90;;;;;;5053144;28;20029;-76
2023/12/26 03:26:09;;;;;;;57.70;41.40;;;9.00;99.90;;;;;;5052976;28;20056;-76
2023/12/26 03:28:35;;;;;;;60.60;42.85;;;9.00;99.90;;;;;;5052386;28;20036;-76
2023/12/26 03:31:04;;;;;;;63.08;42.67;;;9.00;99.90;;;;;;5059288;28;20115;-76
2023/12/26 03:33:31;;;;;;;55.67;41.78;;;9.00;99.90;;;;;;5047108;28;20029;-76
2023/12/26 03:35:57;;;;;;;57.92;40.28;;;9.00;99.90;;;;;;5054037;28;20025;-76
2023/12/26 03:38:22;;;;;;;57.50;40.70;;;9.00;99.90;;;;;;5052574;28;20051;-76
2023/12/26 03:40:48;;;;;;;67.13;44.03;;;9.00;99.90;;;;;;5047575;28;20121;-76
2023/12/26 03:43:16;;;;;;;61.25;40.95;;;9.00;99.90;;;;;;5048875;28;20021;-76
2023/12/26 03:45:43;;;;;;;67.65;43.35;;;9.00;99.90;;;;;;5052688;28;20041;-76
2023/12/26 03:48:09;;;;;;;62.17;44.88;;;9.10;99.90;;;;;;5052375;28;20029;-76
2023/12/26 03:50:35;;;;;;;66.55;45.25;;;9.10;99.90;;;;;;5052400;28;20043;-76
2023/12/26 03:53:00;;;;;;;65.55;43.75;;;9.00;99.90;;;;;;5052288;28;20383;-76
2023/12/26 03:55:26;;;;;;;65.53;44.58;;;9.10;99.90;;;;;;5052473;28;20029;-76
2023/12/26 03:57:52;;;;;;;69.78;45.67;;;9.10;99.90;;;;;;5052207;28;20108;-75
2023/12/26 04:00:18;;;;;;;62.30;43.20;;;9.10;99.90;;;;;;5052273;28;20029;-76
2023/12/26 04:02:44;;;;;;;66.20;45.55;;;9.10;99.90;;;;;;5050576;28;20487;-76
2023/12/26 04:05:10;;;;;;;60.78;42.20;;;9.10;99.90;;;;;;5052220;28;20029;-76
2023/12/26 04:07:37;;;;;;;73.20;44.80;;;9.10;99.90;;;;;;5048859;28;20501;-76
2023/12/26 04:10:03;;;;;;;59.53;42.92;;;9.10;99.90;;;;;;5048410;28;20418;-76
2023/12/26 04:12:29;;;;;;;60.67;43.45;;;9.10;99.90;;;;;;5042431;28;20028;-76
2023/12/26 04:14:55;;;;;;;65.88;43.78;;;9.20;99.90;;;;;;5052202;28;20501;-76
2023/12/26 04:17:21;;;;;;;59.13;41.85;;;9.10;99.90;;;;;;5051965;28;20021;-76
2023/12/26 04:19:47;;;;;;;62.88;42.40;;;9.10;99.90;;;;;;5051975;28;20025;-76
2023/12/26 04:22:13;;;;;;;63.42;43.58;;;9.10;99.90;;;;;;5051922;28;20044;-76
2023/12/26 04:24:39;;;;;;;60.72;43.78;;;9.10;99.90;;;;;;5051440;28;20029;-76
2023/12/26 04:27:06;;;;;;;60.58;43.53;;;9.00;99.90;;;;;;5049923;28;20368;-76
2023/12/26 04:29:32;;;;;;;65.88;44.13;;;9.00;99.90;;;;;;5051640;28;20036;-76
2023/12/26 04:31:58;;;;;;;60.67;42.97;;;9.10;99.90;;;;;;5051617;28;20025;-76
2023/12/26 04:34:23;;;;;;;63.45;42.85;;;9.10;99.90;;;;;;5055994;28;20021;-76
2023/12/26 04:36:49;;;;;;;54.55;41.55;;;9.10;99.90;;;;;;5051763;28;20067;-76
2023/12/26 04:39:15;;;;;;;65.65;43.17;;;9.10;99.90;;;;;;5049351;28;20036;-76
2023/12/26 04:41:40;;;;;;;62.42;40.50;;;9.10;99.90;;;;;;5050375;28;20028;-76
2023/12/26 04:44:06;;;;;;;61.00;40.58;;;9.10;99.90;;;;;;5051397;28;20069;-76
2023/12/26 04:46:32;;;;;;;54.38;37.25;;;9.00;99.90;;;;;;5051437;28;20072;-76
2023/12/26 04:48:58;;;;;;;59.47;41.38;;;9.00;99.90;;;;;;5050161;28;20033;-76
2023/12/26 04:51:25;;;;;;;58.08;38.60;;;9.00;99.90;;;;;;5051309;28;20497;-76
2023/12/26 04:53:51;;;;;;;62.85;40.20;;;9.00;99.90;;;;;;5051571;28;20025;-76
2023/12/26 04:56:18;;;;;;;59.25;41.80;;;9.00;99.90;;;;;;5051526;28;20436;-75
2023/12/26 04:58:47;;;;;;;64.03;41.22;;;9.00;99.90;;;;;;5051331;28;20032;-75
2023/12/26 05:01:13;;;;;;;60.55;42.15;;;9.00;99.90;;;;;;5045879;28;20036;-76
2023/12/26 05:03:38;;;;;;;61.80;42.10;;;9.00;99.90;;;;;;5049264;28;20411;-76
2023/12/26 05:06:04;;;;;;;60.28;40.72;;;9.00;99.90;;;;;;5054599;28;20021;-76
2023/12/26 05:08:31;;;;;;;69.20;41.60;;;9.00;99.90;;;;;;5051240;28;20498;-76
2023/12/26 05:10:56;;;;;;;61.42;41.63;;;9.10;99.90;;;;;;5047507;28;20021;-76
2023/12/26 05:13:22;;;;;;;64.13;41.80;;;9.00;99.90;;;;;;5040786;28;20028;-76
2023/12/26 05:15:49;;;;;;;58.53;42.20;;;9.00;99.90;;;;;;5049592;28;20039;-76
2023/12/26 05:18:15;;;;;;;56.78;40.85;;;9.00;99.90;;;;;;5051103;28;20029;-76
2023/12/26 05:20:41;;;;;;;63.83;41.88;;;9.00;99.90;;;;;;5049737;28;20502;-76
2023/12/26 05:23:06;;;;;;;58.55;42.58;;;8.90;99.90;;;;;;5049718;28;20025;-76
2023/12/26 05:25:32;;;;;;;67.70;42.17;;;9.00;99.90;;;;;;5050061;28;20378;-76
2023/12/26 05:27:58;;;;;;;61.13;42.60;;;8.90;99.90;;;;;;5048432;28;20033;-76
2023/12/26 05:30:24;;;;;;;58.17;41.85;;;9.00;99.90;;;;;;5079266;28;20044;-76
2023/12/26 05:32:52;;;;;;;64.97;43.17;;;9.00;99.90;;;;;;5048213;28;20030;-76
2023/12/26 05:35:18;;;;;;;56.65;39.15;;;8.90;99.90;;;;;;5045995;28;20032;-76
2023/12/26 05:37:47;;;;;;;57.25;40.55;;;8.90;99.90;;;;;;5053361;28;20029;-76
2023/12/26 05:40:12;;;;;;;59.03;40.33;;;8.90;99.90;;;;;;5051027;28;20025;-76
2023/12/26 05:42:38;;;;;;;66.53;43.28;;;8.90;99.90;;;;;;5054178;28;20514;-76
2023/12/26 05:45:04;;;;;;;56.53;41.45;;;8.90;99.90;;;;;;5054822;28;20543;-76
2023/12/26 05:47:30;;;;;;;63.30;43.47;;;8.90;99.90;;;;;;5054531;28;20047;-76
2023/12/26 05:49:58;;;;;;;55.92;40.70;;;8.90;99.90;;;;;;5054825;28;20029;-76
2023/12/26 05:52:25;;;;;;;67.50;44.42;;;8.90;99.90;;;;;;5054507;28;20052;-76
2023/12/26 05:54:51;;;;;;;62.05;42.92;;;8.90;99.90;;;;;;5054792;28;20521;-76
2023/12/26 05:57:16;;;;;;;62.75;42.25;;;8.90;99.90;;;;;;5054717;28;20013;-76
2023/12/26 05:59:42;;;;;;;56.80;41.03;;;8.90;99.90;;;;;;5054603;28;20025;-76
2023/12/26 06:02:08;;;;;;;61.42;42.88;;;8.90;99.90;;;;;;5051235;28;20478;-76
2023/12/26 06:04:34;;;;;;;70.82;46.20;;;8.90;99.90;;;;;;5057913;28;20050;-76
2023/12/26 06:07:00;;;;;;;68.32;44.67;;;8.90;99.90;;;;;;5048608;28;20017;-76
2023/12/26 06:09:26;;;;;;;65.05;42.80;;;8.90;99.90;;;;;;5050300;28;20026;-76
2023/12/26 06:11:52;;;;;;;60.53;43.13;;;8.90;99.90;;;;;;5045306;28;20443;-76
2023/12/26 06:14:18;;;;;;;66.13;45.30;;;8.90;99.90;;;;;;5050082;28;20056;-76
2023/12/26 06:16:44;;;;;;;65.28;45.88;;;8.90;99.90;;;;;;5048979;28;20025;-76
2023/12/26 06:19:10;;;;;;;66.22;43.38;;;8.90;99.90;;;;;;5053387;28;20537;-76
2023/12/26 06:21:36;;;;;;;63.30;45.20;;;9.00;99.90;;;;;;5051688;28;20032;-76
2023/12/26 06:24:02;;;;;;;63.17;43.60;;;9.00;99.90;;;;;;5048576;28;20021;-76
2023/12/26 06:26:28;;;;;;;69.50;44.50;;;8.90;99.90;;;;;;5054117;28;20025;-76
2023/12/26 06:28:54;;;;;;;69.72;46.42;;;9.00;99.90;;;;;;5051700;28;20028;-76
2023/12/26 06:31:19;;;;;;;69.32;47.70;;;8.90;99.90;;;;;;5048014;28;20029;-76
2023/12/26 06:33:45;;;;;;;69.65;45.33;;;8.90;99.90;;;;;;5051412;28;20387;-76
2023/12/26 06:36:11;;;;;;;67.93;46.65;;;8.90;99.90;;;;;;5054300;28;20023;-76
2023/12/26 06:38:37;;;;;;;74.03;48.28;;;8.90;99.90;;;;;;5052373;28;20171;-76
2023/12/26 06:41:04;;;;;;;62.47;44.33;;;8.90;99.90;;;;;;5053027;28;20111;-76
2023/12/26 06:43:30;;;;;;;66.15;44.10;;;8.90;99.90;;;;;;5054745;28;20387;-76
2023/12/26 06:45:57;;;;;;;67.40;47.33;;;8.90;99.90;;;;;;5054062;28;20041;-76
2023/12/26 06:48:23;;;;;;;69.53;46.28;;;8.90;99.90;;;;;;5054291;28;20040;-76
2023/12/26 06:50:49;;;;;;;68.03;47.00;;;8.90;99.90;;;;;;5053576;28;20021;-76
2023/12/26 06:53:14;;;;;;;72.97;50.15;;;9.00;99.90;;;;;;5047922;28;20017;-76
2023/12/26 06:55:40;;;;;;;68.00;46.67;;;9.00;99.90;;;;;;5053861;28;20120;-76
2023/12/26 06:58:06;;;;;;;64.70;47.15;;;9.00;99.90;;;;;;5048954;28;20056;-76
2023/12/26 07:00:32;;;;;;;69.35;48.17;;;9.00;99.90;;;;;;5052049;28;20078;-76
2023/12/26 07:02:57;;;;;;;73.80;47.78;;;8.90;99.90;;;;;;5052631;28;20033;-76
2023/12/26 07:05:23;;;;;;;67.95;46.72;;;8.90;99.90;;;;;;5052616;28;20061;-76
2023/12/26 07:07:49;;;;;;;65.40;46.17;;;8.90;99.90;;;;;;5055217;28;20079;-76
2023/12/26 07:10:14;;;;;;;56.75;41.97;;;9.00;99.90;;;;;;5050865;28;20032;-76
2023/12/26 07:12:40;;;;;;;62.42;44.22;;;8.90;99.90;;;;;;5052775;28;20490;-76
2023/12/26 07:15:07;;;;;;;58.47;42.53;;;8.90;99.90;;;;;;5054445;28;20083;-76
2023/12/26 07:17:33;;;;;;;66.47;42.30;;;8.90;99.90;;;;;;5052771;28;20065;-76
2023/12/26 07:19:59;;;;;;;67.85;45.08;;;8.90;99.90;;;;;;5053095;28;20025;-76
2023/12/26 07:22:25;;;;;;;76.88;50.85;;;8.90;99.90;;;;;;5053387;28;20082;-76
2023/12/26 07:24:50;;;;;;;68.25;48.63;;;8.90;99.90;;;;;;5047470;28;20056;-76
2023/12/26 07:27:16;;;;;;;81.15;55.22;;;8.90;99.90;;;;;;5053186;28;20395;-76
2023/12/26 07:29:42;;;;;;;73.85;49.17;;;8.90;99.90;;;;;;5053355;28;20033;-76
2023/12/26 07:32:07;;;;;;;97.45;59.10;;;8.80;99.90;;;;;;5053017;28;20033;-76
2023/12/26 07:34:33;;;;;;;88.38;55.65;;;8.80;99.90;;;;;;5052109;28;20033;-76
2023/12/26 07:36:59;;;;;;;88.88;55.95;;;8.90;99.90;;;;;;5053432;28;20064;-76
2023/12/26 07:39:24;;;;;;;82.30;56.42;;;8.90;99.90;;;;;;5052509;28;20078;-76
2023/12/26 07:41:50;;;;;;;81.53;55.70;;;8.90;99.90;;;;;;5052521;28;20390;-76
2023/12/26 07:44:16;;;;;;;78.28;54.17;;;8.90;99.90;;;;;;5052551;28;20486;-76
2023/12/26 07:46:42;;;;;;;73.32;49.60;;;8.90;99.90;;;;;;5052360;28;20059;-76
2023/12/26 07:49:08;;;;;;;69.32;49.63;;;9.00;99.90;;;;;;5052565;28;20063;-76
2023/12/26 07:51:35;;;;;;;64.55;47.88;;;9.00;99.90;;;;;;5052136;28;20064;-76
2023/12/26 07:54:00;;;;;;;75.00;51.90;;;8.90;99.90;;;;;;5043608;28;20464;-76
2023/12/26 07:56:26;;;;;;;90.45;56.97;;;8.90;99.90;;;;;;5050801;28;20025;-76
2023/12/26 07:58:52;;;;;;;90.97;59.25;;;8.90;99.90;;;;;;5048173;28;20103;-76
2023/12/26 08:01:18;;;;;;;79.63;54.90;;;8.90;99.90;;;;;;5052278;28;20117;-76
2023/12/26 08:03:44;;;;;;;71.03;51.33;;;8.90;99.90;;;;;;5052325;28;20021;-76
2023/12/26 08:06:10;;;;;;;84.97;55.67;;;8.90;99.90;;;;;;5053640;28;20024;-76
2023/12/26 08:08:36;;;;;;;81.18;55.45;;;9.00;99.90;;;;;;5051246;28;20052;-76
2023/12/26 08:11:02;;;;;;;78.63;52.63;;;8.90;99.90;;;;;;5051978;28;20048;-76
2023/12/26 08:13:27;;;;;;;75.95;54.80;;;8.90;99.90;;;;;;5058510;28;20024;-76
2023/12/26 08:15:53;;;;;;;79.28;53.80;;;9.00;99.90;;;;;;5052056;28;20028;-76
2023/12/26 08:18:19;;;;;;;81.13;56.33;;;9.00;99.90;;;;;;5051485;28;20446;-76
2023/12/26 08:20:44;;;;;;;90.70;58.38;;;9.00;99.90;;;;;;5050632;28;20059;-76
2023/12/26 08:23:10;;;;;;;112.65;78.05;;;9.00;99.90;;;;;;5051888;28;20017;-76
2023/12/26 08:25:37;;;;;;;103.85;71.15;;;9.00;99.90;;;;;;5051825;28;20047;-76
2023/12/26 08:28:04;;;;;;;98.97;72.18;;;9.00;99.90;;;;;;5059044;28;20021;-76
2023/12/26 08:30:29;;;;;;;107.95;73.68;;;9.00;99.90;;;;;;5051853;28;20049;-76
2023/12/26 08:32:55;;;;;;;91.25;65.90;;;9.00;99.90;;;;;;5048381;28;20061;-76
2023/12/26 08:35:21;;;;;;;81.30;60.50;;;9.00;99.90;;;;;;5051736;28;20025;-76
2023/12/26 08:37:46;;;;;;;82.10;58.13;;;9.00;99.90;;;;;;5055098;28;20025;-76
2023/12/26 08:40:12;;;;;;;88.10;61.75;;;9.00;99.90;;;;;;5047739;28;20040;-76
2023/12/26 08:42:38;;;;;;;98.13;65.97;;;9.00;99.90;;;;;;5051475;28;20474;-76
2023/12/26 08:45:04;;;;;;;96.97;65.20;;;9.00;99.90;;;;;;5050378;28;20025;-76
2023/12/26 08:47:30;;;;;;;93.95;64.13;;;9.00;99.90;;;;;;5045079;28;20056;-76
2023/12/26 08:49:56;;;;;;;92.20;65.25;;;9.00;99.90;;;;;;5051419;28;20041;-76
2023/12/26 08:52:23;;;;;;;93.90;67.65;;;9.00;99.90;;;;;;5049875;28;20487;-76
2023/12/26 08:54:49;;;;;;;90.13;68.38;;;9.00;99.90;;;;;;5051414;28;20128;-76
2023/12/26 08:57:14;;;;;;;100.80;69.47;;;9.10;99.90;;;;;;5049937;28;20516;-76
2023/12/26 08:59:40;;;;;;;95.13;69.85;;;9.10;99.90;;;;;;5039591;28;20029;-76
2023/12/26 09:02:06;;;;;;;98.03;69.95;;;9.10;99.90;;;;;;5050883;28;20029;-76
2023/12/26 09:04:32;;;;;;;101.03;70.13;;;9.00;99.90;;;;;;5051412;28;20033;-76
2023/12/26 09:06:57;;;;;;;97.18;70.20;;;9.10;99.90;;;;;;5051608;28;20060;-76
2023/12/26 09:09:26;;;;;;;99.72;69.90;;;9.10;99.90;;;;;;5050601;28;20025;-76
2023/12/26 09:11:53;;;;;;;89.97;69.55;;;9.10;99.90;;;;;;5051799;28;20025;-76
2023/12/26 09:14:19;;;;;;;91.45;67.80;;;9.10;99.90;;;;;;5055321;28;20108;-76
2023/12/26 09:16:45;;;;;;;86.32;64.22;;;9.10;99.90;;;;;;5055285;28;20089;-76
2023/12/26 09:19:11;;;;;;;92.70;63.58;;;9.10;99.90;;;;;;5055312;28;20082;-76
2023/12/26 09:21:37;;;;;;;91.53;64.20;;;9.10;99.90;;;;;;5085743;28;20021;-76
2023/12/26 09:24:03;;;;;;;89.30;64.03;;;9.10;99.90;;;;;;5055231;28;20438;-76
2023/12/26 09:26:29;;;;;;;100.40;68.10;;;9.10;99.90;;;;;;5055049;28;20017;-76
2023/12/26 09:28:55;;;;;;;89.07;65.97;;;9.10;99.90;;;;;;5053694;28;20029;-76
2023/12/26 09:31:21;;;;;;;105.72;70.35;;;9.10;99.90;;;;;;5062918;28;20387;-76
2023/12/26 09:33:47;;;;;;;97.43;69.53;;;9.10;99.90;;;;;;5054961;28;20017;-77
2023/12/26 09:36:12;;;;;;;99.50;72.15;;;9.10;99.90;;;;;;5058089;28;20036;-76
2023/12/26 09:38:40;;;;;;;94.95;69.45;;;9.10;99.90;;;;;;5054716;28;20534;-76
2023/12/26 09:41:06;;;;;;;92.28;64.90;;;9.10;99.90;;;;;;5055085;28;20013;-76
2023/12/26 09:43:31;;;;;;;91.80;66.10;;;9.10;99.90;;;;;;5052717;28;20224;-76
2023/12/26 09:45:57;;;;;;;99.22;70.72;;;9.10;99.90;;;;;;5054737;28;20048;-76
2023/12/26 09:48:24;;;;;;;98.90;69.43;;;9.20;99.90;;;;;;5054785;28;20021;-76
2023/12/26 09:50:54;;;;;;;102.35;74.13;;;9.20;99.90;;;;;;5054664;28;20021;-76
2023/12/26 09:53:24;;;;;;;98.72;72.50;;;9.20;99.90;;;;;;5051729;28;20462;-76
2023/12/26 09:55:53;;;;;;;104.68;73.85;;;9.20;99.90;;;;;;5054815;28;20531;-76
2023/12/26 09:58:21;;;;;;;99.32;72.90;;;9.20;99.90;;;;;;5052578;28;20431;-76
2023/12/26 10:00:48;;;;;;;97.70;72.70;;;9.20;99.90;;;;;;5054572;28;20017;-76
2023/12/26 10:03:14;;;;;;;102.57;72.78;;;9.20;99.90;;;;;;5051966;28;20025;-76
2023/12/26 10:05:39;;;;;;;99.15;72.13;;;9.20;99.90;;;;;;5054477;28;20051;-77
2023/12/26 10:08:05;;;;;;;86.65;65.75;;;9.20;99.90;;;;;;5053657;28;20513;-77
2023/12/26 10:10:32;;;;;;;90.38;66.32;;;9.20;99.90;;;;;;5045663;28;20032;-76
2023/12/26 10:12:58;;;;;;;97.75;68.70;;;9.20;99.90;;;;;;5052219;28;20027;-76
2023/12/26 10:15:23;;;;;;;87.97;63.95;;;9.20;99.90;;;;;;5050162;28;20014;-77
2023/12/26 10:17:51;;;;;;;87.97;64.82;;;9.20;99.90;;;;;;5049588;28;20033;-76
2023/12/26 10:20:17;;;;;;;85.05;61.80;;;9.20;99.90;;;;;;5053695;28;20040;-76
2023/12/26 10:22:43;;;;;;;85.82;63.45;;;9.20;99.90;;;;;;5050194;28;20417;-76
2023/12/26 10:25:10;;;;;;;99.32;66.13;;;9.20;99.90;;;;;;5053758;28;20028;-76
2023/12/26 10:27:38;;;;;;;93.45;64.45;;;9.20;99.90;;;;;;5050640;28;20028;-76
2023/12/26 10:30:04;;;;;;;85.68;62.38;;;9.20;99.90;;;;;;5053759;28;20025;-76
2023/12/26 10:32:30;;;;;;;86.55;61.22;;;9.20;99.90;;;;;;5051410;28;20140;-77
2023/12/26 10:34:56;;;;;;;81.88;62.85;;;9.20;99.90;;;;;;5053556;28;20025;-76
2023/12/26 10:37:22;;;;;;;97.10;68.68;;;9.20;99.90;;;;;;5055589;28;20055;-76
2023/12/26 10:39:48;;;;;;;88.25;64.13;;;9.20;99.90;;;;;;5050674;28;20411;-76
2023/12/26 10:42:18;;;;;;;95.63;72.65;;;9.20;99.90;;;;;;5053147;28;20029;-76
2023/12/26 10:45:05;;;;;;;98.10;70.68;;;9.30;99.90;;;;;;5050058;28;20082;-76
2023/12/26 10:47:31;;;;;;;94.15;70.65;;;9.20;99.90;;;;;;5050553;28;20128;-76
2023/12/26 10:49:59;;;;;;;93.50;68.60;;;9.20;99.90;;;;;;5053593;28;20024;-76
2023/12/26 10:52:29;;;;;;;98.93;70.30;;;9.30;99.90;;;;;;5052059;28;20515;-77
2023/12/26 10:55:00;;;;;;;95.00;70.97;;;9.30;99.90;;;;;;5053419;28;20013;-76
2023/12/26 10:57:29;;;;;;;102.33;72.40;;;9.30;99.90;;;;;;5053543;28;20025;-76
2023/12/26 13:51:36;;;;;;;58.35;45.10;;;10.20;99.90;;;;;;5049530;28;20040;-76
2023/12/26 13:54:03;;;;;;;60.95;44.78;;;10.20;99.90;;;;;;5051103;28;20029;-76
2023/12/26 13:56:29;;;;;;;63.78;45.20;;;10.10;99.90;;;;;;5056205;28;20025;-76
2023/12/26 13:58:54;;;;;;;58.63;44.75;;;10.20;99.90;;;;;;5052118;28;20036;-76
2023/12/26 14:01:22;;;;;;;63.28;46.53;;;10.20;99.90;;;;;;5054356;28;20018;-77
2023/12/26 14:03:51;;;;;;;64.88;46.40;;;10.20;99.90;;;;;;5054352;28;20051;-77
2023/12/26 14:06:20;;;;;;;64.68;46.28;;;10.20;99.90;;;;;;5053629;28;20028;-76
2023/12/26 14:08:51;;;;;;;65.30;45.45;;;10.20;99.90;;;;;;5053171;28;20035;-77
2023/12/26 14:11:17;;;;;;;58.28;45.83;;;10.20;99.90;;;;;;5049398;28;20021;-76
2023/12/26 14:13:43;;;;;;;60.95;46.15;;;10.20;99.90;;;;;;5052939;28;20020;-77
2023/12/26 14:16:08;;;;;;;67.15;46.20;;;10.20;99.90;;;;;;5053200;28;20516;-76
2023/12/26 14:18:35;;;;;;;61.60;43.92;;;10.20;99.90;;;;;;5051873;28;20028;-76
2023/12/26 14:21:01;;;;;;;67.90;43.33;;;10.20;99.90;;;;;;5054027;28;20017;-76
2023/12/26 14:23:28;;;;;;;59.15;42.38;;;10.20;99.90;;;;;;5053208;28;20314;-76
2023/12/26 14:25:54;;;;;;;62.25;43.08;;;10.20;99.90;;;;;;5052747;28;20067;-76
2023/12/26 14:28:19;;;;;;;62.55;41.85;;;10.20;99.90;;;;;;5053693;28;20064;-76
2023/12/26 14:30:45;;;;;;;56.53;43.10;;;10.20;99.90;;;;;;5054091;28;20491;-76
2023/12/26 14:33:19;;;;;;;64.10;43.05;;;10.20;99.90;;;;;;5053654;28;20127;-76
2023/12/26 14:35:49;;;;;;;61.20;41.97;;;10.20;99.90;;;;;;5052464;28;20108;-76
2023/12/26 14:38:15;;;;;;;54.70;41.50;;;10.20;99.90;;;;;;5050382;28;20025;-76
2023/12/26 14:40:42;;;;;;;59.35;40.92;;;10.10;99.90;;;;;;5052467;28;20025;-77
2023/12/26 14:43:07;;;;;;;67.30;41.50;;;10.20;99.90;;;;;;5053352;28;20025;-76
2023/12/26 14:45:33;;;;;;;66.05;46.00;;;10.10;99.90;;;;;;5049759;28;20026;-76
2023/12/26 14:47:58;;;;;;;64.22;47.60;;;10.10;99.90;;;;;;5055821;28;20390;-77
2023/12/26 14:50:24;;;;;;;73.50;50.00;;;10.10;99.90;;;;;;5053681;28;20032;-77
2023/12/26 14:52:52;;;;;;;81.47;49.55;;;10.10;99.90;;;;;;5046771;28;20056;-77
2023/12/26 14:55:18;;;;;;;80.93;50.92;;;10.10;99.90;;;;;;5048229;28;20098;-77
2023/12/26 14:57:44;;;;;;;71.75;48.78;;;10.10;99.90;;;;;;5049750;28;20648;-77
2023/12/26 15:00:10;;;;;;;71.28;50.13;;;10.10;99.90;;;;;;5049135;28;20024;-77
2023/12/26 15:02:36;;;;;;;71.07;48.35;;;10.10;99.90;;;;;;5045759;28;20471;-77
2023/12/26 15:05:02;;;;;;;66.47;47.85;;;10.10;99.90;;;;;;5050558;28;20511;-77
2023/12/26 15:07:27;;;;;;;67.13;48.33;;;10.10;99.90;;;;;;5049002;28;20083;-77
2023/12/26 15:09:53;;;;;;;64.75;47.25;;;10.00;99.90;;;;;;5046320;28;20443;-77
2023/12/26 15:12:19;;;;;;;72.53;47.80;;;10.00;99.90;;;;;;5049562;28;20059;-76
2023/12/26 15:14:45;;;;;;;65.13;48.60;;;10.00;99.90;;;;;;5048208;28;20031;-77
2023/12/26 15:17:12;;;;;;;69.50;47.95;;;10.00;99.90;;;;;;5049153;28;20027;-77
2023/12/26 15:19:38;;;;;;;79.45;51.35;;;10.00;99.90;;;;;;5049737;28;20375;-76
2023/12/26 15:22:03;;;;;;;65.97;49.05;;;10.00;99.90;;;;;;5051582;28;20060;-77